Hyundai No.107 — A8CT4 — position and weather

sailwx.info

Track history (hours):
 
Tides and Currents Weather Stations Pressure Air Temp Water Temp Dewpoint Dewpoint Depression Visibility Wind Speed Wind Dir Waves Ship Positions

Hyundai No.107

Last reported at 2016-Nov-17 12:26 UTC. Time now 2016-Dec-03 09:42 UTC.
Position N 46°53' W 125°15'.
Warning: this ship's position is 15 days out of date.

Length 184 m; draft 8.3 m.

Type: Cargo ship. MMSI: 636011980.

Date/timePositionNaut miles runAvg speedWind from/ knotsBaromVisibWave heightAir tempDewpointWater temp
2016-Nov-17 12:26N 46°53' W 125°15'1011.8
2016-Nov-17 11:33N 46°53' W 125°00'3210.8
2016-Nov-17 08:34N 46°51' W 124°13'13 0.6
2016-Nov-16 12:22N 46°39' W 124°20'24 8.7
2016-Nov-16 09:33N 46°15' W 124°15'5 5.3
2016-Nov-16 08:33N 46°14' W 124°07'9 9.4
2016-Nov-16 07:33N 46°11' W 123°54'10 9.8
2016-Nov-16 06:34N 46°15' W 123°41'2311.6
2016-Nov-16 04:33N 46°11' W 123°08'1211.7
2016-Nov-16 03:33N 46°05' W 122°54'1211.7
2016-Nov-16 02:33N 45°54' W 122°48'1413.1
2016-Nov-16 01:30N 45°40' W 122°46'1 0.3
2016-Nov-15 21:32N 45°39' W 122°45'0 0.0
2016-Nov-15 19:32N 45°39' W 122°45'0 0.0
2016-Nov-15 18:32N 45°39' W 122°45'0 0.0
2016-Nov-15 13:31N 45°39' W 122°45'0 0.0
2016-Nov-15 12:28N 45°39' W 122°45'0 0.0
2016-Nov-15 11:28N 45°39' W 122°45'0 0.0
2016-Nov-15 10:33N 45°39' W 122°45'0 0.0
2016-Nov-15 07:27N 45°39' W 122°45'0 0.0
2016-Nov-15 06:27N 45°39' W 122°45'0 0.0
2016-Nov-15 05:51N 45°39' W 122°45'0 0.0
2016-Nov-15 03:29N 45°39' W 122°45'0 0.0
2016-Nov-15 02:29N 45°39' W 122°45'0 0.0
2016-Nov-15 00:32N 45°39' W 122°45'0 0.0
2016-Nov-14 23:40N 45°39' W 122°45'0 0.0
2016-Nov-14 19:31N 45°39' W 122°45'0 0.0
2016-Nov-14 17:30N 45°39' W 122°45'0 0.0
2016-Nov-14 16:30N 45°39' W 122°45'0 0.0
2016-Nov-14 15:21N 45°39' W 122°45'0 0.0
2016-Nov-14 11:29N 45°39' W 122°45'0 0.0
2016-Nov-14 08:31N 45°39' W 122°45'0 0.0
2016-Nov-14 05:28N 45°39' W 122°45'20 4.0
2016-Nov-14 00:34N 45°58' W 122°49'1010.4
2016-Nov-13 23:34N 46°07' W 122°58'1110.6
2016-Nov-13 22:33N 46°10' W 123°13'29 9.6
2016-Nov-13 19:33N 46°11' W 123°54'1010.4
2016-Nov-13 18:33N 46°13' W 124°09'8 7.6
2016-Nov-13 17:34N 46°13' W 124°20'10 5.1
2016-Nov-13 15:33N 46°22' W 124°24'5 2.4
2016-Nov-13 13:33N 46°19' W 124°29'5 1.5
2016-Nov-13 10:33N 46°15' W 124°33'3 1.6
2016-Nov-13 08:33N 46°13' W 124°36'1 0.3
2016-Nov-13 05:33N 46°13' W 124°38'8 4.0
2016-Nov-13 03:33N 46°17' W 124°28'7 1.6
2016-Nov-12 23:33N 46°13' W 124°35'2 1.2
2016-Nov-12 21:33N 46°12' W 124°38'3 1.4
2016-Nov-12 19:33N 46°11' W 124°42'2 1.1
2016-Nov-12 17:33N 46°11' W 124°45'3 3.0
2016-Nov-12 16:33N 46°09' W 124°49'2 2.2
2016-Nov-12 15:33N 46°09' W 124°52'2 2.5
2016-Nov-12 14:33N 46°06' W 124°52'3 3.3
2016-Nov-12 13:33N 46°05' W 124°47'4 4.0
2016-Nov-12 12:33N 46°03' W 124°43'2 1.6
2016-Nov-12 11:33N 46°03' W 124°41'4 1.9
2016-Nov-12 09:33N 46°06' W 124°37'8 2.7
2016-Nov-12 06:33N 46°14' W 124°35'13 4.2
2016-Nov-12 03:33N 46°27' W 124°40'10 9.8
2016-Nov-12 02:33N 46°34' W 124°50'20 9.9
2016-Nov-12 00:33N 46°51' W 125°05'1110.5
2016-Nov-11 23:33N 47°01' W 125°09'78 9.7
2016-Nov-11 15:33N 48°19' W 125°15'1010.2
2016-Nov-11 14:33N 48°27' W 125°06'4411.0
2016-Nov-11 10:33N 48°19' W 124°01'1312.6
2016-Nov-11 09:33N 48°16' W 123°43'3311.1
2016-Nov-11 06:33N 48°12' W 122°53'1313.2
2016-Nov-11 05:33N 48°03' W 122°38'1414.6
2016-Nov-11 04:34N 47°51' W 122°28'1615.5
2016-Nov-11 03:33N 47°35' W 122°27'1514.6
2016-Nov-11 02:34N 47°21' W 122°25'4 4.5
2016-Nov-11 01:33N 47°16' W 122°25'0 0.0
2016-Nov-11 00:33N 47°16' W 122°25'0 0.0
2016-Nov-10 23:30N 47°16' W 122°25'0 0.0
2016-Nov-10 22:33N 47°16' W 122°25'0 0.0
2016-Nov-10 20:33N 47°16' W 122°25'0 0.0
2016-Nov-10 18:33N 47°16' W 122°25'0 0.0
2016-Nov-10 16:33N 47°16' W 122°25'0 0.0
2016-Nov-10 15:33N 47°16' W 122°25'3 0.7
2016-Nov-10 11:33N 47°18' W 122°28'1110.9
2016-Nov-10 10:33N 47°29' W 122°25'1515.0
2016-Nov-10 09:33N 47°44' W 122°27'1514.6
2016-Nov-10 08:33N 47°58' W 122°35'1515.2
2016-Nov-10 07:33N 48°10' W 122°47'1616.1
2016-Nov-10 06:33N 48°11' W 123°12'1111.4
2016-Nov-10 05:33N 48°12' W 123°29'1211.5
2016-Nov-10 04:33N 48°23' W 123°23'4210.5
2016-Nov-10 00:33N 49°05' W 123°21'17 8.7
2016-Nov-09 22:32N 49°11' W 122°55'0 0.0
2016-Nov-09 20:32N 49°11' W 122°55'0 0.0
2016-Nov-09 19:47N 49°11' W 122°55'0 0.0
2016-Nov-09 19:02N 49°11' W 122°55'0 0.0
2016-Nov-09 18:32N 49°11' W 122°55'0 0.0
2016-Nov-09 17:32N 49°11' W 122°55'0 0.0
2016-Nov-09 15:32N 49°11' W 122°55'0 0.0
2016-Nov-09 13:32N 49°11' W 122°55'13 2.7
2016-Nov-09 08:33N 49°07' W 123°15'8 7.7
2016-Nov-09 07:33N 48°60' W 123°14'2110.7
2016-Nov-09 05:33N 48°38' W 123°14'1514.5
2016-Nov-09 04:33N 48°24' W 123°12'2411.8
2016-Nov-09 02:33N 48°13' W 123°44'3913.0
2016-Nov-08 23:33N 48°27' W 124°39'1111.1
2016-Nov-08 22:33N 48°28' W 124°55'1111.2
2016-Nov-08 21:33N 48°29' W 125°12'1111.3
2016-Nov-08 20:33N 48°29' W 125°29'1111.2
2016-Nov-08 19:33N 48°29' W 125°46'1111.1
2016-Nov-08 18:33N 48°29' W 126°03'1111.4
2016-Nov-08 17:34N 48°28' W 126°20'  
Track history (hours):
 
Tides and Currents Weather Stations Pressure Air Temp Water Temp Dewpoint Dewpoint Depression Visibility Wind Speed Wind Dir Waves Ship Positions

Hyundai No.107

Last reported at 2016-Nov-17 12:26 UTC. Time now 2016-Dec-03 09:42 UTC.
Position N 46°53' W 125°15'.
Warning: this ship's position is 15 days out of date.

Length 184 m; draft 8.3 m.

Type: Cargo ship. MMSI: 636011980.

Date/timePositionNaut miles runAvg speedWind from/ knotsBaromVisibWave heightAir tempDewpointWater temp
2016-Nov-17 12:26N 46°53' W 125°15'1011.8
2016-Nov-17 11:33N 46°53' W 125°00'3210.8
2016-Nov-17 08:34N 46°51' W 124°13'13 0.6
2016-Nov-16 12:22N 46°39' W 124°20'24 8.7
2016-Nov-16 09:33N 46°15' W 124°15'5 5.3
2016-Nov-16 08:33N 46°14' W 124°07'9 9.4
2016-Nov-16 07:33N 46°11' W 123°54'10 9.8
2016-Nov-16 06:34N 46°15' W 123°41'2311.6
2016-Nov-16 04:33N 46°11' W 123°08'1211.7
2016-Nov-16 03:33N 46°05' W 122°54'1211.7
2016-Nov-16 02:33N 45°54' W 122°48'1413.1
2016-Nov-16 01:30N 45°40' W 122°46'1 0.3
2016-Nov-15 21:32N 45°39' W 122°45'0 0.0
2016-Nov-15 19:32N 45°39' W 122°45'0 0.0
2016-Nov-15 18:32N 45°39' W 122°45'0 0.0
2016-Nov-15 13:31N 45°39' W 122°45'0 0.0
2016-Nov-15 12:28N 45°39' W 122°45'0 0.0
2016-Nov-15 11:28N 45°39' W 122°45'0 0.0
2016-Nov-15 10:33N 45°39' W 122°45'0 0.0
2016-Nov-15 07:27N 45°39' W 122°45'0 0.0
2016-Nov-15 06:27N 45°39' W 122°45'0 0.0
2016-Nov-15 05:51N 45°39' W 122°45'0 0.0
2016-Nov-15 03:29N 45°39' W 122°45'0 0.0
2016-Nov-15 02:29N 45°39' W 122°45'0 0.0
2016-Nov-15 00:32N 45°39' W 122°45'0 0.0
2016-Nov-14 23:40N 45°39' W 122°45'0 0.0
2016-Nov-14 19:31N 45°39' W 122°45'0 0.0
2016-Nov-14 17:30N 45°39' W 122°45'0 0.0
2016-Nov-14 16:30N 45°39' W 122°45'0 0.0
2016-Nov-14 15:21N 45°39' W 122°45'0 0.0
2016-Nov-14 11:29N 45°39' W 122°45'0 0.0
2016-Nov-14 08:31N 45°39' W 122°45'0 0.0
2016-Nov-14 05:28N 45°39' W 122°45'20 4.0
2016-Nov-14 00:34N 45°58' W 122°49'1010.4
2016-Nov-13 23:34N 46°07' W 122°58'1110.6
2016-Nov-13 22:33N 46°10' W 123°13'29 9.6
2016-Nov-13 19:33N 46°11' W 123°54'1010.4
2016-Nov-13 18:33N 46°13' W 124°09'8 7.6
2016-Nov-13 17:34N 46°13' W 124°20'10 5.1
2016-Nov-13 15:33N 46°22' W 124°24'5 2.4
2016-Nov-13 13:33N 46°19' W 124°29'5 1.5
2016-Nov-13 10:33N 46°15' W 124°33'3 1.6
2016-Nov-13 08:33N 46°13' W 124°36'1 0.3
2016-Nov-13 05:33N 46°13' W 124°38'8 4.0
2016-Nov-13 03:33N 46°17' W 124°28'7 1.6
2016-Nov-12 23:33N 46°13' W 124°35'2 1.2
2016-Nov-12 21:33N 46°12' W 124°38'3 1.4
2016-Nov-12 19:33N 46°11' W 124°42'2 1.1
2016-Nov-12 17:33N 46°11' W 124°45'3 3.0
2016-Nov-12 16:33N 46°09' W 124°49'2 2.2
2016-Nov-12 15:33N 46°09' W 124°52'2 2.5
2016-Nov-12 14:33N 46°06' W 124°52'3 3.3
2016-Nov-12 13:33N 46°05' W 124°47'4 4.0
2016-Nov-12 12:33N 46°03' W 124°43'2 1.6
2016-Nov-12 11:33N 46°03' W 124°41'4 1.9
2016-Nov-12 09:33N 46°06' W 124°37'8 2.7
2016-Nov-12 06:33N 46°14' W 124°35'13 4.2
2016-Nov-12 03:33N 46°27' W 124°40'10 9.8
2016-Nov-12 02:33N 46°34' W 124°50'20 9.9
2016-Nov-12 00:33N 46°51' W 125°05'1110.5
2016-Nov-11 23:33N 47°01' W 125°09'78 9.7
2016-Nov-11 15:33N 48°19' W 125°15'1010.2
2016-Nov-11 14:33N 48°27' W 125°06'4411.0
2016-Nov-11 10:33N 48°19' W 124°01'1312.6
2016-Nov-11 09:33N 48°16' W 123°43'3311.1
2016-Nov-11 06:33N 48°12' W 122°53'1313.2
2016-Nov-11 05:33N 48°03' W 122°38'1414.6
2016-Nov-11 04:34N 47°51' W 122°28'1615.5
2016-Nov-11 03:33N 47°35' W 122°27'1514.6
2016-Nov-11 02:34N 47°21' W 122°25'4 4.5
2016-Nov-11 01:33N 47°16' W 122°25'0 0.0
2016-Nov-11 00:33N 47°16' W 122°25'0 0.0
2016-Nov-10 23:30N 47°16' W 122°25'0 0.0
2016-Nov-10 22:33N 47°16' W 122°25'0 0.0
2016-Nov-10 20:33N 47°16' W 122°25'0 0.0
2016-Nov-10 18:33N 47°16' W 122°25'0 0.0
2016-Nov-10 16:33N 47°16' W 122°25'0 0.0
2016-Nov-10 15:33N 47°16' W 122°25'3 0.7
2016-Nov-10 11:33N 47°18' W 122°28'1110.9
2016-Nov-10 10:33N 47°29' W 122°25'1515.0
2016-Nov-10 09:33N 47°44' W 122°27'1514.6
2016-Nov-10 08:33N 47°58' W 122°35'1515.2
2016-Nov-10 07:33N 48°10' W 122°47'1616.1
2016-Nov-10 06:33N 48°11' W 123°12'1111.4
2016-Nov-10 05:33N 48°12' W 123°29'1211.5
2016-Nov-10 04:33N 48°23' W 123°23'4210.5
2016-Nov-10 00:33N 49°05' W 123°21'17 8.7
2016-Nov-09 22:32N 49°11' W 122°55'0 0.0
2016-Nov-09 20:32N 49°11' W 122°55'0 0.0
2016-Nov-09 19:47N 49°11' W 122°55'0 0.0
2016-Nov-09 19:02N 49°11' W 122°55'0 0.0
2016-Nov-09 18:32N 49°11' W 122°55'0 0.0
2016-Nov-09 17:32N 49°11' W 122°55'0 0.0
2016-Nov-09 15:32N 49°11' W 122°55'0 0.0
2016-Nov-09 13:32N 49°11' W 122°55'13 2.7
2016-Nov-09 08:33N 49°07' W 123°15'8 7.7
2016-Nov-09 07:33N 48°60' W 123°14'2110.7
2016-Nov-09 05:33N 48°38' W 123°14'1514.5
2016-Nov-09 04:33N 48°24' W 123°12'2411.8
2016-Nov-09 02:33N 48°13' W 123°44'3913.0
2016-Nov-08 23:33N 48°27' W 124°39'1111.1
2016-Nov-08 22:33N 48°28' W 124°55'1111.2
2016-Nov-08 21:33N 48°29' W 125°12'1111.3
2016-Nov-08 20:33N 48°29' W 125°29'1111.2
2016-Nov-08 19:33N 48°29' W 125°46'1111.1
2016-Nov-08 18:33N 48°29' W 126°03'1111.4
2016-Nov-08 17:34N 48°28' W 126°20'  

Dump ship's entire track history